Terminal Aerodrome Forecast
Issued by NWS

Home | Current Version | Previous Version | Text Only | Print | Product List | Glossary On
Versions: 1 2 3 4 5 6 7 8 9 10 11 12 13 14 15 16 17 18 19 20 21 22 23 24 25 26 27 28
000
FTAK31 PAFA 182321 AAA
TAFAUN
TAF AMD
PAUN 182321Z 1823/1924 34012KT P6SM FEW060 OVC080
     FM190600 36022KT P6SM -SHRA OVC050
     FM191300 30011KT P6SM -SHRA SCT025 OVC050=

USA.gov is the U.S. government's official web portal to all federal, state and local government web resources and services.